Capitol, Montana
Current Conditions -  °F | °C
As of 4:11 PM on Tuesday 25 Nov 2014 (Local Time) from KBHK Reporting Station
Light Snow Light Snow  
Wind Chill: 19°   Ceiling: 4300
Heat Index: 32°   Visibility: 8mi
Dew Point: 29°   Wind: 24mph
Humidity: 88%   Direction: 310°NW
Pressure: 29.83"   Gusts: 36mph
Location:  45.44°N, 104.07°W
Report Text: KBHK 252311Z AUTO 31021G31KT 8SM -SN FEW010 BKN043 OVC049 00/M02 A2983 RMK AO2 PK WND 31031/2307 P0000 T00001017
Loading
Personal Weather Stations






























Interactive Weather Map New forecast layout! Learn more

10-Day Weather Forecast

Advertisements
Track Severe Weather on mobile